createdAt,value
2022-12-03T12:36:36.882Z,22.40
2022-12-03T12:55:33.933Z,21.10
2022-12-03T12:58:27.589Z,26.60
2022-12-03T13:01:22.528Z,22.70
2022-12-03T13:03:56.068Z,24.80
2022-12-03T13:07:20.649Z,21.00
2022-12-03T13:09:57.481Z,22.40
2022-12-03T13:12:29.934Z,25.80
2022-12-03T13:18:06.355Z,23.80
2022-12-03T13:24:25.067Z,23.70
2022-12-03T13:26:57.076Z,23.50
2022-12-03T13:29:30.022Z,23.50
2022-12-03T13:35:55.469Z,24.60
2022-12-03T13:38:29.791Z,22.30
2022-12-03T13:41:31.981Z,23.70
2022-12-03T13:44:09.333Z,29.20
2022-12-03T13:47:01.940Z,30.80
2022-12-03T13:49:36.473Z,25.00
2022-12-03T13:52:20.667Z,25.60
2022-12-03T13:54:55.308Z,26.60
2022-12-03T13:57:27.960Z,25.50
2022-12-03T14:00:01.448Z,26.20
2022-12-03T14:06:16.001Z,27.50
2022-12-03T14:11:56.539Z,21.70
2022-12-03T14:14:30.256Z,21.20
2022-12-03T14:17:06.868Z,25.30
2022-12-03T14:19:54.319Z,23.00
2022-12-03T14:24:59.472Z,20.10
2022-12-03T14:31:08.676Z,24.90
2022-12-03T14:33:55.210Z,26.50
2022-12-03T14:36:26.549Z,19.00
2022-12-03T14:38:56.683Z,23.10
2022-12-03T14:41:43.136Z,26.40
2022-12-03T14:44:11.298Z,21.70
2022-12-03T14:46:39.460Z,22.50
2022-12-03T14:49:08.152Z,22.30
2022-12-03T14:51:37.088Z,22.20
2022-12-03T15:04:32.941Z,21.10
2022-12-03T15:10:05.310Z,18.30
2022-12-03T15:12:41.657Z,19.00
2022-12-03T15:15:14.937Z,18.90
2022-12-03T16:07:51.151Z,24.20
2022-12-03T16:13:13.399Z,23.20
2022-12-03T16:15:53.242Z,22.90
2022-12-03T16:18:32.727Z,21.90
2022-12-03T16:21:04.486Z,19.60
2022-12-03T17:01:42.837Z,22.50
2022-12-03T17:04:12.977Z,25.80
2022-12-03T17:06:50.234Z,23.00
2022-12-03T17:09:22.120Z,23.40
2022-12-03T17:11:53.353Z,23.40
2022-12-03T17:14:44.566Z,24.40
2022-12-03T17:17:33.734Z,24.00
2022-12-03T17:20:22.487Z,27.10
2022-12-03T17:23:07.301Z,23.10
2022-12-03T17:25:56.904Z,23.70
2022-12-03T17:28:46.876Z,25.80
2022-12-03T17:31:41.453Z,25.40
2022-12-03T17:34:32.345Z,27.50
2022-12-03T17:37:21.224Z,23.80
2022-12-03T17:39:48.908Z,25.00
2022-12-03T17:42:19.671Z,27.00
2022-12-03T17:44:49.639Z,26.70
2022-12-03T17:47:17.512Z,25.00
2022-12-03T17:50:28.382Z,24.90
2022-12-03T17:53:21.051Z,24.90
2022-12-03T17:56:09.256Z,24.80
2022-12-03T17:58:58.039Z,25.40
2022-12-03T18:01:47.250Z,24.50
2022-12-03T18:04:22.218Z,25.60
2022-12-03T18:07:44.220Z,25.70
2022-12-03T18:10:52.241Z,24.60
2022-12-03T18:13:43.100Z,25.40
2022-12-03T18:16:37.618Z,25.40
2022-12-03T18:19:26.539Z,26.80
2022-12-03T18:21:55.858Z,27.90
2022-12-03T18:24:26.540Z,25.60
2022-12-03T18:27:14.996Z,23.40
2022-12-03T18:29:46.780Z,28.50
2022-12-03T18:32:36.590Z,25.60
2022-12-03T18:35:10.656Z,27.10
2022-12-03T18:37:40.708Z,26.30
2022-12-03T18:40:32.015Z,25.40
2022-12-03T18:43:22.924Z,24.30
2022-12-03T18:46:31.051Z,30.30
2022-12-03T18:49:04.203Z,27.00
2022-12-03T18:51:59.051Z,25.40
2022-12-03T18:54:49.909Z,25.30
2022-12-03T18:57:42.714Z,25.70
2022-12-03T19:00:33.630Z,23.40
2022-12-03T19:03:26.012Z,24.70
2022-12-03T19:06:19.105Z,26.10
2022-12-03T19:08:54.978Z,27.30
2022-12-03T19:11:46.279Z,25.50
2022-12-03T19:14:39.375Z,25.00
2022-12-03T19:17:30.278Z,25.30
2022-12-03T19:20:20.751Z,26.20
2022-12-03T19:22:51.100Z,25.60
2022-12-03T19:25:42.700Z,26.50
2022-12-03T19:28:34.126Z,27.70
2022-12-03T19:31:23.141Z,26.80
2022-12-03T19:34:16.347Z,26.10
2022-12-03T19:37:08.553Z,28.30
2022-12-03T19:40:01.685Z,29.50
2022-12-03T19:42:35.128Z,28.40
2022-12-03T19:46:23.781Z,30.50
2022-12-03T19:48:55.486Z,31.80
2022-12-03T19:51:36.758Z,28.60
2022-12-03T19:54:31.751Z,30.80
2022-12-03T19:57:24.759Z,32.20
2022-12-03T20:00:19.999Z,27.10
2022-12-03T20:03:17.867Z,29.00
2022-12-03T20:05:53.294Z,30.50
2022-12-03T20:08:34.971Z,29.10
2022-12-03T20:11:32.281Z,34.20
2022-12-03T20:14:29.314Z,30.20
2022-12-03T20:17:04.433Z,31.20
2022-12-03T20:20:02.103Z,28.60
2022-12-03T20:23:13.373Z,29.50
2022-12-03T20:25:54.791Z,28.70
2022-12-03T20:28:56.841Z,26.70
2022-12-03T20:31:49.410Z,33.50
2022-12-03T20:34:43.619Z,30.80
2022-12-03T20:37:40.233Z,29.00
2022-12-03T20:40:42.149Z,30.00
2022-12-03T20:43:36.706Z,30.60
2022-12-03T20:46:40.961Z,25.50
2022-12-03T20:49:46.319Z,26.40
2022-12-03T20:52:20.690Z,26.90
2022-12-03T20:55:16.461Z,26.40
2022-12-03T20:58:11.064Z,28.30
2022-12-03T21:00:44.868Z,26.00
2022-12-03T21:03:51.376Z,27.30
2022-12-03T21:06:45.481Z,27.30
2022-12-03T21:09:18.473Z,27.90
2022-12-03T21:12:10.154Z,26.00
2022-12-03T21:15:03.506Z,28.00
2022-12-03T21:17:56.941Z,30.20
2022-12-03T21:20:51.114Z,31.30
2022-12-03T21:23:22.159Z,29.00
2022-12-03T21:26:16.631Z,30.40
2022-12-03T21:28:52.343Z,32.70
2022-12-03T21:31:48.410Z,30.50
2022-12-03T21:34:59.557Z,31.00
2022-12-03T21:37:53.023Z,29.80
2022-12-03T21:40:44.666Z,29.70
2022-12-03T21:43:42.132Z,31.00
2022-12-03T21:47:09.747Z,29.20
2022-12-03T21:49:32.365Z,34.20
2022-12-03T21:52:34.908Z,33.50
2022-12-03T21:55:26.272Z,32.20
2022-12-03T21:58:31.612Z,24.10
2022-12-03T22:01:29.452Z,29.30
2022-12-03T22:04:35.757Z,29.00
2022-12-03T22:07:06.985Z,28.50
2022-12-03T22:10:05.380Z,31.70
2022-12-03T22:13:00.339Z,30.60
2022-12-03T22:15:38.363Z,29.60
2022-12-03T22:18:39.523Z,29.40
2022-12-03T22:21:13.703Z,28.90
2022-12-03T22:23:45.694Z,30.50
2022-12-03T22:26:40.468Z,30.10
2022-12-03T22:29:49.171Z,31.40
2022-12-03T22:32:24.686Z,27.40
2022-12-03T22:35:29.911Z,26.30
2022-12-03T22:38:23.941Z,28.50
2022-12-03T22:41:27.026Z,32.20
2022-12-03T22:44:29.304Z,31.10
2022-12-03T22:47:22.301Z,32.70
2022-12-03T22:50:17.407Z,30.80
2022-12-03T22:52:49.136Z,33.20
2022-12-03T22:55:42.245Z,28.80
2022-12-03T22:58:33.189Z,26.40
2022-12-03T23:01:29.558Z,31.80
2022-12-03T23:04:04.856Z,30.80
2022-12-03T23:07:00.517Z,28.60
2022-12-03T23:09:54.940Z,29.60
2022-12-03T23:12:27.665Z,27.60
2022-12-03T23:14:58.621Z,28.10
2022-12-03T23:17:34.548Z,31.10
2022-12-03T23:20:06.756Z,30.10
2022-12-03T23:22:37.277Z,26.20
2022-12-03T23:25:12.460Z,25.90
2022-12-03T23:27:45.504Z,30.50
2022-12-03T23:30:17.957Z,28.90
2022-12-03T23:33:10.938Z,26.40
2022-12-03T23:35:43.656Z,27.70
2022-12-03T23:38:14.890Z,24.50
2022-12-03T23:40:48.216Z,27.40
2022-12-03T23:43:19.126Z,29.10
2022-12-03T23:45:51.845Z,28.70
2022-12-03T23:48:22.308Z,29.30
2022-12-03T23:50:53.333Z,29.00
2022-12-03T23:53:23.898Z,28.30
2022-12-03T23:56:10.160Z,29.10
2022-12-03T23:58:41.909Z,30.80
